createdAt,value
2023-02-08T00:02:34.315Z,33.00
2023-02-08T00:05:01.076Z,30.05
2023-02-08T00:09:54.595Z,30.87
2023-02-08T00:14:47.841Z,34.08
2023-02-08T00:19:41.151Z,31.52
2023-02-08T00:22:07.813Z,30.77
2023-02-08T00:27:01.068Z,29.15
2023-02-08T00:31:54.477Z,27.75
2023-02-08T00:34:21.171Z,28.23
2023-02-08T00:39:14.831Z,29.13
2023-02-08T00:41:41.491Z,28.13
2023-02-08T00:46:35.436Z,29.30
2023-02-08T00:49:02.176Z,26.80
2023-02-08T00:53:55.538Z,28.65
2023-02-08T00:56:22.778Z,30.30
2023-02-08T01:01:17.365Z,30.80
2023-02-08T01:03:44.553Z,31.35
2023-02-08T01:06:15.474Z,31.67
2023-02-08T01:08:42.343Z,31.67
2023-02-08T01:11:22.221Z,30.15
2023-02-08T01:13:49.844Z,31.83
2023-02-08T01:16:19.591Z,29.73
2023-02-08T01:18:48.419Z,31.10
2023-02-08T01:21:18.646Z,28.42
2023-02-08T01:23:46.316Z,28.77
2023-02-08T01:26:14.834Z,29.05
2023-02-08T01:28:41.540Z,27.23
2023-02-08T01:31:21.021Z,25.67
2023-02-08T01:33:48.114Z,28.40
2023-02-08T01:36:15.054Z,26.38
2023-02-08T01:38:42.548Z,27.20
2023-02-08T01:41:24.080Z,26.75
2023-02-08T01:44:08.761Z,27.23
2023-02-08T01:46:44.032Z,27.80
2023-02-08T01:49:31.053Z,28.42
2023-02-08T01:52:06.150Z,19.30
2023-02-08T01:54:38.182Z,26.45
2023-02-08T01:57:05.199Z,27.77
2023-02-08T01:59:51.228Z,27.90
2023-02-08T02:02:20.967Z,28.38
2023-02-08T02:04:49.130Z,27.42
2023-02-08T02:07:17.284Z,27.17
2023-02-08T02:09:59.679Z,28.50
2023-02-08T02:12:27.773Z,28.15
2023-02-08T02:14:55.157Z,27.60
2023-02-08T02:17:21.918Z,28.00
2023-02-08T02:20:15.822Z,27.95
2023-02-08T02:23:02.680Z,27.88
2023-02-08T02:26:13.445Z,28.13
2023-02-08T02:29:09.511Z,27.38
2023-02-08T02:31:51.298Z,28.65
2023-02-08T02:34:30.231Z,26.73
2023-02-08T02:37:12.499Z,27.67
2023-02-08T02:40:04.095Z,28.27
2023-02-08T02:43:23.079Z,26.67
2023-02-08T02:46:15.703Z,28.13
2023-02-08T02:48:48.152Z,28.67
2023-02-08T02:51:24.162Z,27.70
2023-02-08T02:53:58.712Z,30.17
2023-02-08T02:56:31.979Z,29.85
2023-02-08T02:59:04.015Z,31.52
2023-02-08T03:01:31.252Z,28.85
2023-02-08T03:03:58.850Z,33.08
2023-02-08T03:06:36.797Z,32.88
2023-02-08T03:09:33.399Z,30.60
2023-02-08T03:12:22.495Z,30.77
2023-02-08T03:15:28.078Z,30.27
2023-02-08T03:18:13.256Z,30.02
2023-02-08T03:20:47.287Z,31.65
2023-02-08T03:23:24.314Z,30.42
2023-02-08T03:26:05.467Z,34.75
2023-02-08T03:28:56.639Z,32.67
2023-02-08T03:31:32.891Z,33.38
2023-02-08T03:34:06.931Z,27.60
2023-02-08T03:36:40.747Z,34.47
2023-02-08T03:39:13.374Z,32.60
2023-02-08T03:41:44.704Z,31.70
2023-02-08T03:44:16.251Z,30.67
2023-02-08T03:46:51.618Z,32.70
2023-02-08T03:49:28.037Z,33.10
2023-02-08T03:51:58.362Z,34.00
2023-02-08T03:54:28.170Z,32.17
2023-02-08T03:57:04.052Z,31.10
2023-02-08T03:59:40.888Z,34.00
2023-02-08T04:02:12.480Z,32.28
2023-02-08T04:04:43.948Z,32.63
2023-02-08T04:07:10.720Z,32.35
2023-02-08T04:09:38.814Z,32.25
2023-02-08T04:12:06.195Z,34.08
2023-02-08T04:14:32.836Z,33.78
2023-02-08T04:19:26.105Z,34.08
2023-02-08T04:21:52.776Z,32.13
2023-02-08T04:24:20.144Z,33.13
2023-02-08T04:26:47.351Z,31.65
2023-02-08T04:29:14.401Z,33.90
2023-02-08T04:31:41.538Z,31.95
2023-02-08T04:34:08.342Z,33.05
2023-02-08T04:36:35.197Z,31.92
2023-02-08T04:39:01.911Z,32.92
2023-02-08T04:41:28.581Z,32.50
2023-02-08T04:43:55.263Z,34.53
2023-02-08T04:48:48.536Z,31.05
2023-02-08T04:53:41.920Z,32.45
2023-02-08T04:58:36.730Z,33.13
2023-02-08T05:01:07.493Z,33.03
2023-02-08T05:03:34.279Z,32.80
2023-02-08T05:08:28.018Z,34.28
2023-02-08T05:10:55.771Z,30.08
2023-02-08T05:13:22.574Z,32.58
2023-02-08T05:15:49.349Z,33.95
2023-02-08T05:18:16.021Z,30.58
2023-02-08T05:20:42.956Z,32.83
2023-02-08T05:23:09.656Z,30.85
2023-02-08T05:25:37.921Z,29.85
2023-02-08T05:28:04.712Z,32.78
2023-02-08T05:30:31.652Z,30.85
2023-02-08T05:32:58.373Z,32.22
2023-02-08T05:35:25.019Z,30.45
2023-02-08T05:40:18.462Z,32.95
2023-02-08T05:42:45.164Z,31.27
2023-02-08T05:45:11.829Z,32.45
2023-02-08T05:47:38.471Z,32.80
2023-02-08T05:52:32.299Z,30.52
2023-02-08T05:54:59.046Z,34.50
2023-02-08T05:57:25.825Z,33.38
2023-02-08T05:59:52.497Z,36.15
2023-02-08T06:02:19.189Z,33.97
2023-02-08T06:04:46.115Z,30.30
2023-02-08T06:07:12.812Z,34.15
2023-02-08T06:09:39.548Z,34.08
2023-02-08T06:12:07.145Z,31.25
2023-02-08T06:14:33.820Z,30.63
2023-02-08T06:19:27.119Z,30.00
2023-02-08T06:21:53.712Z,31.23
2023-02-08T06:26:46.980Z,30.25
2023-02-08T06:29:13.778Z,32.17
2023-02-08T06:31:40.569Z,31.05
2023-02-08T06:34:07.498Z,30.20
2023-02-08T06:36:34.222Z,30.20
2023-02-08T06:39:01.106Z,30.30
2023-02-08T06:41:27.837Z,31.88
2023-02-08T06:43:54.501Z,32.13
2023-02-08T06:48:47.793Z,31.17
2023-02-08T06:51:14.537Z,30.60
2023-02-08T06:53:41.210Z,32.60
2023-02-08T06:56:08.190Z,33.22
2023-02-08T06:58:35.137Z,35.10
2023-02-08T07:01:01.865Z,31.35
2023-02-08T07:03:28.589Z,32.90
2023-02-08T07:06:04.637Z,30.67
2023-02-08T07:08:33.657Z,32.05
2023-02-08T07:11:00.334Z,32.83
2023-02-08T07:13:27.020Z,32.33
2023-02-08T07:18:20.348Z,30.23
2023-02-08T07:20:48.859Z,30.58
2023-02-08T07:23:15.534Z,31.23
2023-02-08T07:25:42.266Z,27.05
2023-02-08T07:28:08.965Z,29.17
2023-02-08T07:30:36.308Z,30.65
2023-02-08T07:33:03.095Z,29.50
2023-02-08T07:35:29.785Z,30.38
2023-02-08T07:40:23.039Z,29.10
2023-02-08T07:42:49.687Z,29.75
2023-02-08T07:45:33.924Z,27.63
2023-02-08T07:48:00.666Z,32.00
2023-02-08T07:52:53.991Z,27.70
2023-02-08T07:57:48.997Z,28.27
2023-02-08T08:00:18.077Z,28.25
2023-02-08T08:02:44.885Z,30.60
2023-02-08T08:05:11.920Z,27.00
2023-02-08T08:07:38.673Z,29.23
2023-02-08T08:10:05.583Z,26.77
2023-02-08T08:12:32.283Z,28.80
2023-02-08T08:14:58.962Z,27.80
2023-02-08T08:17:25.700Z,27.45
2023-02-08T08:19:52.364Z,28.17
2023-02-08T08:22:19.047Z,27.95
2023-02-08T08:27:12.304Z,27.80
2023-02-08T08:29:39.260Z,27.60
2023-02-08T08:32:07.662Z,29.55
2023-02-08T08:34:34.393Z,27.67
2023-02-08T08:37:02.729Z,29.05
2023-02-08T08:39:29.434Z,28.17
2023-02-08T08:42:00.672Z,29.90
2023-02-08T08:44:27.429Z,26.15
2023-02-08T08:46:58.630Z,28.23
2023-02-08T08:49:26.517Z,28.98
2023-02-08T08:51:53.924Z,27.85
2023-02-08T08:54:21.925Z,27.30
2023-02-08T08:56:48.575Z,25.67
2023-02-08T08:59:15.437Z,28.98
2023-02-08T09:01:42.710Z,27.02
2023-02-08T09:04:10.910Z,25.15
2023-02-08T09:06:38.592Z,24.90
2023-02-08T09:09:06.079Z,25.15
2023-02-08T09:11:33.304Z,25.25
2023-02-08T09:14:04.421Z,26.55
2023-02-08T09:16:32.779Z,25.13
2023-02-08T09:19:04.016Z,26.63
2023-02-08T09:21:31.149Z,27.33
2023-02-08T09:23:58.401Z,25.25
2023-02-08T09:26:26.460Z,25.08
2023-02-08T09:28:53.686Z,26.75
2023-02-08T09:31:22.164Z,27.55
2023-02-08T09:33:50.050Z,27.35
2023-02-08T09:36:18.020Z,26.90
2023-02-08T09:38:45.480Z,24.98
2023-02-08T09:41:44.603Z,28.00
2023-02-08T09:44:20.444Z,26.27
2023-02-08T09:46:57.135Z,25.23
2023-02-08T09:49:29.042Z,26.17
2023-02-08T09:52:02.909Z,24.80
2023-02-08T09:54:37.958Z,26.27
2023-02-08T09:57:11.634Z,25.05
2023-02-08T09:59:40.567Z,24.75
2023-02-08T10:02:27.446Z,24.00
2023-02-08T10:05:17.755Z,27.20
2023-02-08T10:07:44.622Z,23.98
2023-02-08T10:10:16.406Z,24.73
2023-02-08T10:12:54.824Z,25.60
2023-02-08T10:15:47.119Z,24.40
2023-02-08T10:18:52.290Z,24.52
2023-02-08T10:21:48.623Z,26.67
2023-02-08T10:24:33.320Z,25.17
2023-02-08T10:27:14.538Z,25.80
2023-02-08T10:30:01.481Z,24.35
2023-02-08T10:32:48.427Z,24.20
2023-02-08T10:35:24.235Z,25.50
2023-02-08T10:37:51.095Z,24.80
2023-02-08T10:40:37.629Z,24.98
2023-02-08T10:43:26.726Z,24.70
2023-02-08T10:46:27.411Z,27.20
2023-02-08T10:49:08.068Z,25.40
2023-02-08T10:51:36.023Z,27.60
2023-02-08T10:54:02.865Z,25.65
2023-02-08T10:56:57.333Z,26.55
2023-02-08T10:59:38.489Z,26.15
2023-02-08T11:02:24.177Z,24.92
2023-02-08T11:05:01.364Z,24.45
2023-02-08T11:10:12.596Z,25.23
2023-02-08T11:12:41.162Z,25.13
2023-02-08T11:15:22.713Z,26.38
2023-02-08T11:17:55.166Z,27.67
2023-02-08T11:20:31.900Z,26.52
2023-02-08T11:22:59.659Z,26.98
2023-02-08T11:25:39.059Z,25.83
2023-02-08T11:28:22.843Z,24.27
2023-02-08T11:30:58.075Z,26.65
2023-02-08T11:33:27.247Z,25.00
2023-02-08T11:36:09.746Z,27.00
2023-02-08T11:38:42.844Z,26.52
2023-02-08T11:41:19.046Z,25.75
2023-02-08T11:44:06.848Z,25.30
2023-02-08T11:49:03.458Z,23.17
2023-02-08T11:51:32.426Z,24.98
2023-02-08T11:54:00.484Z,27.38
2023-02-08T11:56:30.504Z,25.98
2023-02-08T11:59:20.090Z,25.52
2023-02-08T12:01:46.928Z,25.80
2023-02-08T12:04:15.253Z,24.48
2023-02-08T12:07:06.681Z,25.27
2023-02-08T12:10:10.968Z,26.80
2023-02-08T12:13:19.957Z,22.90
2023-02-08T12:16:22.384Z,21.90
2023-02-08T12:19:09.877Z,26.55
2023-02-08T12:21:43.965Z,25.70
2023-02-08T12:24:25.064Z,24.23
2023-02-08T12:27:01.400Z,24.02
2023-02-08T12:29:52.516Z,24.03
2023-02-08T12:32:49.060Z,22.63
2023-02-08T12:36:01.837Z,23.20
2023-02-08T12:39:25.713Z,23.75
2023-02-08T12:42:06.099Z,22.92
2023-02-08T12:44:52.014Z,26.17
2023-02-08T12:47:27.693Z,25.35
2023-02-08T12:50:09.073Z,25.80
2023-02-08T12:52:42.156Z,24.08
2023-02-08T12:55:21.361Z,23.80
2023-02-08T12:57:53.170Z,25.17
2023-02-08T13:00:23.011Z,26.75
2023-02-08T13:02:57.429Z,25.00
2023-02-08T13:05:30.853Z,23.70
2023-02-08T13:08:29.393Z,23.77
2023-02-08T13:11:14.164Z,25.83
2023-02-08T13:13:56.625Z,28.35
2023-02-08T13:16:33.923Z,25.23
2023-02-08T13:19:22.399Z,26.98
2023-02-08T13:21:50.549Z,24.45
2023-02-08T13:24:36.469Z,22.90
2023-02-08T13:27:06.839Z,23.33
2023-02-08T13:29:35.848Z,21.35
2023-02-08T13:32:22.396Z,23.27
2023-02-08T13:34:54.044Z,23.15
2023-02-08T13:37:29.589Z,22.95
2023-02-08T13:40:02.912Z,23.40
2023-02-08T13:42:36.745Z,23.63
2023-02-08T13:45:06.424Z,24.35
2023-02-08T13:47:41.515Z,23.77
2023-02-08T13:50:29.134Z,24.55
2023-02-08T13:52:56.150Z,23.15
2023-02-08T13:55:35.867Z,25.80
2023-02-08T13:58:27.200Z,23.60
2023-02-08T14:00:54.000Z,23.65
2023-02-08T14:05:59.529Z,24.90
2023-02-08T14:11:20.862Z,22.48
2023-02-08T14:14:01.914Z,22.25
2023-02-08T14:16:30.819Z,23.70
2023-02-08T14:19:00.495Z,23.98
2023-02-08T14:21:38.377Z,33.60
2023-02-08T14:24:19.322Z,25.35
2023-02-08T14:26:46.525Z,30.38
2023-02-08T14:29:27.572Z,23.23
2023-02-08T14:31:54.729Z,22.52
2023-02-08T14:34:35.228Z,21.90
2023-02-08T14:37:11.001Z,23.25
2023-02-08T14:39:37.889Z,29.15
2023-02-08T14:42:08.621Z,25.83
2023-02-08T14:44:38.404Z,24.45
2023-02-08T14:47:12.935Z,24.10
2023-02-08T14:49:45.279Z,25.05
2023-02-08T14:52:19.972Z,25.60
2023-02-08T14:55:14.905Z,30.52
2023-02-08T14:57:42.163Z,26.48
2023-02-08T15:00:20.481Z,24.23
2023-02-08T15:02:48.304Z,45.28
2023-02-08T15:05:29.679Z,29.52
2023-02-08T15:07:58.594Z,34.63
2023-02-08T15:10:30.191Z,29.52
2023-02-08T15:13:00.701Z,27.77
2023-02-08T15:15:45.739Z,25.05
2023-02-08T15:18:26.372Z,24.30
2023-02-08T15:20:59.840Z,22.70
2023-02-08T15:23:26.791Z,23.80
2023-02-08T15:26:04.035Z,21.85
2023-02-08T15:31:06.165Z,22.55
2023-02-08T15:33:33.615Z,24.45
2023-02-08T15:36:08.492Z,22.23
2023-02-08T15:38:41.409Z,20.17
2023-02-08T15:41:23.520Z,20.40
2023-02-08T15:43:50.432Z,22.27
2023-02-08T15:46:23.530Z,25.40
2023-02-08T15:48:51.582Z,24.08
2023-02-08T15:51:24.264Z,25.63
2023-02-08T15:53:54.349Z,23.05
2023-02-08T15:56:39.468Z,21.35
2023-02-08T15:59:19.815Z,21.03
2023-02-08T16:01:47.891Z,22.48
2023-02-08T16:04:14.632Z,25.63
2023-02-08T16:09:18.939Z,20.60
2023-02-08T16:11:49.903Z,22.70
2023-02-08T16:14:19.179Z,24.90
2023-02-08T16:16:54.967Z,25.33
2023-02-08T16:19:32.529Z,24.67
2023-02-08T16:22:21.385Z,25.88
2023-02-08T16:24:50.788Z,25.55
2023-02-08T16:27:25.568Z,27.23
2023-02-08T16:29:52.737Z,26.25
2023-02-08T16:32:32.469Z,25.98
2023-02-08T16:35:10.559Z,27.90
2023-02-08T16:37:37.484Z,28.00
2023-02-08T16:40:24.061Z,26.05
2023-02-08T16:42:50.768Z,27.58
2023-02-08T16:47:51.876Z,28.65
2023-02-08T16:50:27.278Z,27.67
2023-02-08T16:53:01.037Z,29.27
2023-02-08T16:55:31.858Z,28.63
2023-02-08T16:57:59.387Z,28.77
2023-02-08T17:00:29.815Z,27.00
2023-02-08T17:02:57.376Z,28.50
2023-02-08T17:05:27.528Z,25.27
2023-02-08T17:07:54.540Z,27.85
2023-02-08T17:10:28.309Z,29.35
2023-02-08T17:13:07.038Z,28.42
2023-02-08T17:15:43.572Z,21.73
2023-02-08T17:18:12.292Z,29.88
2023-02-08T17:20:39.172Z,26.88
2023-02-08T17:23:06.631Z,26.00
2023-02-08T17:25:34.335Z,28.08
2023-02-08T17:28:02.945Z,28.15
2023-02-08T17:30:38.863Z,30.33
2023-02-08T17:33:07.437Z,27.80
2023-02-08T17:35:34.430Z,27.40
2023-02-08T17:38:01.772Z,29.80
2023-02-08T17:40:34.682Z,28.95
2023-02-08T17:43:02.256Z,27.80
2023-02-08T17:45:29.232Z,30.92
2023-02-08T17:47:59.194Z,29.48
2023-02-08T17:50:26.220Z,28.15
2023-02-08T17:52:52.888Z,26.63
2023-02-08T17:55:19.570Z,28.02
2023-02-08T17:57:46.540Z,29.42
2023-02-08T18:00:18.957Z,25.50
2023-02-08T18:02:47.878Z,27.77
2023-02-08T18:05:24.047Z,27.98
2023-02-08T18:07:52.647Z,21.33
2023-02-08T18:10:20.039Z,24.52
2023-02-08T18:12:47.224Z,24.88
2023-02-08T18:15:17.956Z,28.10
2023-02-08T18:17:44.700Z,29.60
2023-02-08T18:20:14.109Z,30.33
2023-02-08T18:22:44.506Z,28.67
2023-02-08T18:25:12.598Z,31.08
2023-02-08T18:27:40.082Z,28.45
2023-02-08T18:30:07.630Z,26.80
2023-02-08T18:32:34.295Z,29.65
2023-02-08T18:35:03.603Z,27.42
2023-02-08T18:37:31.664Z,26.27
2023-02-08T18:39:58.618Z,29.02
2023-02-08T18:42:25.299Z,31.27
2023-02-08T18:44:52.023Z,30.63
2023-02-08T18:47:18.800Z,26.88
2023-02-08T18:49:47.548Z,29.05
2023-02-08T18:52:15.848Z,26.02
2023-02-08T18:54:42.567Z,29.38
2023-02-08T18:57:12.216Z,29.27
2023-02-08T18:59:39.319Z,31.48
2023-02-08T19:02:07.766Z,30.00
2023-02-08T19:04:38.866Z,28.75
2023-02-08T19:07:06.681Z,26.45
2023-02-08T19:09:37.900Z,27.23
2023-02-08T19:12:04.872Z,26.55
2023-02-08T19:14:31.602Z,27.92
2023-02-08T19:16:58.305Z,28.75
2023-02-08T19:19:25.330Z,27.38
2023-02-08T19:21:52.180Z,25.38
2023-02-08T19:24:19.602Z,25.73
2023-02-08T19:26:46.789Z,28.80
2023-02-08T19:29:15.949Z,23.65
2023-02-08T19:31:43.439Z,23.98
2023-02-08T19:34:11.205Z,24.02
2023-02-08T19:36:42.288Z,26.20
2023-02-08T19:39:09.096Z,27.20
2023-02-08T19:41:38.165Z,28.52
2023-02-08T19:44:06.934Z,26.27
2023-02-08T19:46:38.560Z,26.92
2023-02-08T19:49:06.879Z,26.52
2023-02-08T19:51:36.835Z,26.77
2023-02-08T19:54:07.106Z,26.85
2023-02-08T19:56:34.279Z,27.15
2023-02-08T19:59:05.641Z,25.63
2023-02-08T20:01:34.181Z,26.10
2023-02-08T20:04:02.333Z,25.45
2023-02-08T20:06:35.957Z,25.27
2023-02-08T20:09:04.653Z,27.02
2023-02-08T20:11:33.962Z,25.52
2023-02-08T20:14:01.578Z,26.80
2023-02-08T20:16:31.662Z,25.33
2023-02-08T20:18:59.299Z,24.42
2023-02-08T20:21:26.828Z,25.33
2023-02-08T20:23:53.762Z,24.73
2023-02-08T20:26:23.679Z,24.58
2023-02-08T20:28:53.059Z,24.13
2023-02-08T20:31:26.463Z,25.40
2023-02-08T20:33:54.133Z,25.73
2023-02-08T20:36:23.632Z,26.65
2023-02-08T20:38:52.515Z,25.65
2023-02-08T20:41:20.034Z,26.45
2023-02-08T20:43:47.149Z,25.30
2023-02-08T20:46:18.775Z,25.48
2023-02-08T20:48:45.522Z,24.48
2023-02-08T20:51:14.967Z,25.85
2023-02-08T20:53:43.751Z,24.60
2023-02-08T20:56:14.088Z,25.80
2023-02-08T20:58:40.920Z,23.33
2023-02-08T21:01:09.659Z,23.90
2023-02-08T21:03:37.006Z,22.10
2023-02-08T21:06:12.887Z,24.60
2023-02-08T21:08:39.891Z,25.05
2023-02-08T21:11:06.792Z,23.92
2023-02-08T21:13:33.617Z,25.25
2023-02-08T21:16:03.562Z,24.02
2023-02-08T21:18:30.184Z,22.90
2023-02-08T21:20:57.786Z,23.92
2023-02-08T21:23:24.616Z,23.90
2023-02-08T21:25:51.252Z,22.52
2023-02-08T21:28:18.021Z,22.73
2023-02-08T21:30:45.155Z,22.70
2023-02-08T21:33:12.065Z,20.58
2023-02-08T21:35:38.786Z,24.55
2023-02-08T21:38:05.895Z,24.42
2023-02-08T21:40:33.109Z,22.45
2023-02-08T21:42:59.897Z,21.45
2023-02-08T21:45:26.623Z,22.85
2023-02-08T21:47:53.292Z,22.58
2023-02-08T21:50:38.755Z,19.42
2023-02-08T21:53:24.484Z,23.52
2023-02-08T21:55:51.205Z,22.50
2023-02-08T21:58:17.883Z,22.63
2023-02-08T22:00:44.850Z,22.02
2023-02-08T22:03:11.680Z,22.77
2023-02-08T22:05:38.404Z,23.58
2023-02-08T22:08:05.180Z,24.10
2023-02-08T22:10:32.412Z,24.17
2023-02-08T22:12:59.265Z,21.48
2023-02-08T22:15:29.285Z,20.95
2023-02-08T22:17:58.514Z,22.95
2023-02-08T22:20:25.396Z,20.90
2023-02-08T22:22:54.811Z,20.13
2023-02-08T22:25:23.368Z,21.70
2023-02-08T22:27:50.116Z,22.98
2023-02-08T22:30:18.277Z,22.33
2023-02-08T22:32:47.840Z,21.95
2023-02-08T22:35:15.762Z,21.98
2023-02-08T22:37:42.783Z,21.80
2023-02-08T22:40:11.269Z,22.52
2023-02-08T22:42:40.018Z,22.88
2023-02-08T22:45:07.459Z,25.80
2023-02-08T22:47:34.791Z,23.83
2023-02-08T22:50:01.684Z,23.95
2023-02-08T22:52:28.483Z,23.92
2023-02-08T22:54:56.176Z,22.00
2023-02-08T22:57:22.810Z,22.27
2023-02-08T22:59:49.447Z,20.20
2023-02-08T23:02:19.078Z,20.88
2023-02-08T23:04:45.740Z,19.58
2023-02-08T23:07:12.419Z,20.98
2023-02-08T23:09:39.217Z,21.63
2023-02-08T23:12:06.203Z,23.52
2023-02-08T23:14:33.958Z,20.45
2023-02-08T23:17:00.646Z,20.25
2023-02-08T23:19:27.715Z,18.30
2023-02-08T23:21:57.888Z,21.55
2023-02-08T23:24:24.612Z,19.20
2023-02-08T23:26:51.396Z,18.02
2023-02-08T23:29:18.068Z,18.33
2023-02-08T23:31:44.997Z,16.73
2023-02-08T23:34:12.550Z,18.08
2023-02-08T23:36:39.239Z,16.77
2023-02-08T23:39:06.045Z,20.20
2023-02-08T23:41:32.815Z,17.65
2023-02-08T23:43:59.564Z,17.73
2023-02-08T23:46:28.046Z,15.65
2023-02-08T23:48:55.160Z,15.75
2023-02-08T23:51:24.238Z,15.85
2023-02-08T23:53:52.156Z,16.70
2023-02-08T23:56:27.308Z,18.88
2023-02-08T23:58:56.749Z,15.98
